ADDS METAR Data INFO
IDs: Format: Raw Decoded Include TAF

Data at: 0143 UTC 26 Feb 2018

KASN 260135Z AUTO 00000KT 7SM -RA SCT004 SCT030 OVC095 13/13 A3016 RMK AO2 P0001 T01340134
KASN 260115Z AUTO 00000KT 7SM -RA BKN006 BKN032 BKN095 13/13 A3016 RMK AO2 P0001 T01340133
KASN 260055Z AUTO 00000KT 10SM -RA BKN006 BKN031 OVC095 13/13 A3017 RMK AO2 P0002 T01330131
KASN 260035Z AUTO 00000KT 10SM -RA BKN004 OVC031 14/13 A3017 RMK AO2 P0002 T01350132
KASN 260015Z AUTO 00000KT 10SM -RA BKN006 BKN025 OVC034 14/13 A3016 RMK AO2 P0001 T01350133
KASN 252355Z AUTO 00000KT 10SM -RA SCT025 BKN034 OVC050 14/14 A3015 RMK AO2 P0002 60003 T01350135 10151 20129
KASN 252335Z AUTO 00000KT 7SM -RA SCT035 BKN050 OVC090 14/14 A3015 RMK AO2 P0001 T01350135
KASN 252315Z AUTO 00000KT 10SM DZ SCT050 BKN080 OVC100 14/13 A3014 RMK AO2 T01360134
KASN 252255Z AUTO 00000KT 10SM -DZ SCT047 BKN075 OVC110 14/13 A3015 RMK AO2 T01370131
KASN 252235Z AUTO 00000KT 10SM RA SCT047 BKN075 OVC080 14/13 A3014 RMK AO2 T01370132
KASN 252215Z AUTO 00000KT 10SM -RA SCT070 BKN080 14/13 A3014 RMK AO2 T01370132
KASN 252155Z AUTO 00000KT 10SM -DZ OVC080 14/13 A3013 RMK AO2 T01370131
KASN 252135Z AUTO 30008KT 10SM RA SCT037 SCT070 BKN080 14/13 A3013 RMK AO2 T01380133
KASN 252115Z AUTO 29012KT 10SM -RA SCT040 SCT055 SCT075 15/14 A3012 RMK AO2 T01450139
KASN 252055Z AUTO 00000KT 10SM SCT095 15/14 A3009 RMK AO2 60001 T01500140
KASN 252035Z AUTO 00000KT 10SM -RA SCT095 15/14 A3008 RMK AO2 T01490140
KASN 252015Z AUTO 15003KT 10SM -RA OVC095 15/14 A3008 RMK AO2 T01450140
KASN 251955Z AUTO 14004KT 10SM OVC095 14/14 A3008 RMK AO2 T01410137
KASN 251935Z AUTO A3009 RMK AO2 PWINO
KASN 251915Z AUTO 28004KT 10SM -RA OVC100 14/14 A3011 RMK AO2 T01400135
KASN 251855Z AUTO 00000KT 10SM -RA OVC100 14/13 A3010 RMK AO2 P0001 T01390133
KASN 251835Z AUTO 13003KT 10SM -RA OVC090 14/13 A3009 RMK AO2 P0001 T01350131
KASN 251815Z AUTO 00000KT 10SM SCT006 OVC090 13/13 A3011 RMK AO2 T01320128
KASN 251755Z AUTO 13003KT 10SM -DZ BKN006 OVC080 13/13 A3012 RMK AO2 60036 T01280125 10161 20120
KASN 251735Z AUTO 13004KT 10SM -RA OVC006 13/13 A3014 RMK AO2 T01270126
KASN 251715Z AUTO 12004KT 10SM DZ OVC006 13/13 A3016 RMK AO2 T01260125
KASN 251655Z AUTO 14003KT 10SM -RA OVC006 13/12 A3018 RMK AO2 P0001 T01260124
KASN 251635Z AUTO 00000KT 10SM -RA OVC006 13/12 A3019 RMK AO2 P0001 T01250122
KASN 251615Z AUTO 00000KT 10SM -RA OVC006 13/12 A3019 RMK AO2 P0001 T01250121
KASN 251555Z AUTO 00000KT 10SM -RA OVC006 12/12 A3021 RMK AO2 P0002 T01230119
KASN 251535Z AUTO 27004KT 10SM -RA OVC008 13/12 A3020 RMK AO2 P0001 T01250120
KASN 251515Z AUTO 00000KT 10SM -RA OVC008 12/11 A3016 RMK AO2 T01210113
KASN 251455Z AUTO 00000KT 10SM RA OVC008 12/11 A3015 RMK AO2 P0005 60033 T01210108
KASN 251435Z AUTO 08004KT 10SM -RA BKN008 BKN012 OVC018 13/12 A3014 RMK AO2 P0004 T01270123
KASN 251415Z AUTO 00000KT 7SM RA SCT005 BKN008 OVC016 13/13 A3014 RMK AO2 P0002 T01290126
KASN 251355Z AUTO 36004KT 4SM RA SCT008 BKN016 OVC028 13/13 A3014 RMK AO2 P0017 T01280126
KASN 251335Z AUTO 07004KT 4SM RA SCT008 BKN017 OVC028 13/13 A3012 RMK AO2 P0012 T01300126
KASN 251315Z AUTO 03003KT 7SM RA SCT007 BKN022 OVC027 13/13 A3013 RMK AO2 P0002 T01310126
KASN 251255Z AUTO 34007KT 5SM +RA SCT017 BKN025 OVC036 14/13 A3012 RMK AO2 P0011 T01370131
KASN 251235Z AUTO 33009G19KT 7SM RA SCT007 BKN023 OVC034 14/13 A3010 RMK AO2 P0006 T01400130
KASN 251215Z AUTO 30012G18KT 7SM RA SCT009 BKN023 OVC028 16/15 A3008 RMK AO2 P0002 T01550149
KASN 251155Z AUTO 33008G17KT 5SM RA SCT011 BKN025 OVC043 16/15 A3005 RMK AO2 P0012 60013 70013 T01620154 10212 20162
KASN 251135Z AUTO 33016G22KT 7SM +RA SCT019 BKN028 OVC049 17/16 A3002 RMK AO2 P0003 T01690160
KASN 251115Z AUTO 19008KT 10SM SCT021 BKN049 OVC100 20/19 A3000 RMK AO2 T02030186
KASN 251055Z AUTO 20007KT 10SM SCT023 SCT039 OVC047 20/19 A2999 RMK AO2 T02020186
KASN 251035Z AUTO 20008KT 10SM SCT025 BKN046 OVC055 20/19 A2999 RMK AO2 T02010185
KASN 251015Z AUTO 20011G15KT 10SM SCT016 BKN034 OVC047 20/19 A2999 RMK AO2 T02010185
KASN 250955Z AUTO 20007KT 7SM RA SCT017 BKN037 OVC045 21/19 A2999 RMK AO2 P0001 T02050185
KASN 250935Z AUTO 21010KT 10SM SCT019 SCT025 OVC043 21/18 A3000 RMK AO2 T02100181
KASN 250915Z AUTO 19010KT 10SM SCT023 BKN043 OVC065 21/18 A3000 RMK AO2 T02100180
KASN 250855Z AUTO 20009G17KT 10SM SCT021 BKN070 OVC100 21/18 A3000 RMK AO2 T02100180
KASN 250835Z AUTO 21012G17KT 10SM SCT023 SCT039 OVC090 21/18 A3001 RMK AO2 T02100180
KASN 250815Z AUTO 20010G15KT 10SM SCT024 BKN032 OVC090 21/18 A3001 RMK AO2 T02100178
KASN 250755Z AUTO 20011G17KT 10SM SCT023 BKN029 OVC037 21/18 A3002 RMK AO2 T02120177
KASN 250735Z AUTO 20012G16KT 10SM BKN023 OVC029 21/18 A3003 RMK AO2 T02110177
KASN 250715Z AUTO 20009G17KT 10SM BKN023 OVC027 21/18 A3003 RMK AO2 T02100176
KASN 250655Z AUTO 20008G18KT 10SM BKN023 OVC028 21/18 A3003 RMK AO2 T02100175
KASN 250635Z AUTO 20010KT 10SM BKN027 21/18 A3003 RMK AO2 T02100175
KASN 250615Z AUTO 20011G17KT 10SM BKN027 21/17 A3003 RMK AO2 T02100173
KASN 250555Z AUTO 20010G21KT 10SM SCT025 21/17 A3003 RMK AO2 T02100172 10235 20209 402600165
KASN 250535Z AUTO 19011KT 10SM CLR 21/17 A3003 RMK AO2 T02100170
KASN 250515Z AUTO 20013G17KT 10SM SCT100 21/17 A3003 RMK AO2 T02110169
KASN 250455Z AUTO 20009G18KT 10SM SCT100 21/17 A3003 RMK AO2 T02120167
KASN 250435Z AUTO 19011G16KT 10SM CLR 22/17 A3003 RMK AO2 T02160167
KASN 250415Z AUTO 20013G20KT 10SM CLR 22/17 A3003 RMK AO2 T02200165
KASN 250355Z AUTO 20010G17KT 10SM CLR 22/17 A3003 RMK AO2 T02220165
KASN 250335Z AUTO 20010G15KT 10SM SCT090 23/16 A3003 RMK AO2 T02260163
KASN 250315Z AUTO 20009G16KT 10SM OVC090 23/16 A3002 RMK AO2 T02320163
KASN 250255Z AUTO 20011KT 10SM SCT075 OVC090 23/16 A3002 RMK AO2 T02320163
KASN 250235Z AUTO 20010G18KT 10SM SCT075 OVC090 24/16 A3002 RMK AO2 T02350162
KASN 250215Z AUTO 20012G19KT 10SM SCT070 OVC090 23/16 A3001 RMK AO2 T02330162
KASN 250155Z AUTO 18006KT 10SM SCT080 OVC100 23/16 A3001 RMK AO2 T02250162
KASN 250135Z AUTO 16009KT 10SM SCT065 OVC100 22/16 A3001 RMK AO2 T02230161
KASN 250115Z AUTO 17004KT 10SM BKN055 BKN110 22/16 A3001 RMK AO2 T02210161
KASN 250055Z AUTO 16003KT 10SM SCT060 BKN065 22/16 A3001 RMK AO2 T02230162
KASN 250035Z AUTO 17003KT 10SM SCT085 22/16 A3001 RMK AO2 T02240161
KASN 250015Z AUTO 15004KT 10SM BKN085 23/16 A3000 RMK AO2 T02280162
KASN 242355Z AUTO 16005KT 10SM BKN085 23/16 A3000 RMK AO2 T02340162 10260 20234
KASN 242335Z AUTO 17007KT 10SM OVC085 24/16 A3000 RMK AO2 T02400163
KASN 242315Z AUTO 19008G15KT 10SM SCT070 OVC080 25/16 A3000 RMK AO2 T02450160
KASN 242255Z AUTO 16008G14KT 10SM OVC080 25/16 A3000 RMK AO2 T02450162
KASN 242235Z AUTO 17008G16KT 10SM SCT080 25/16 A3000 RMK AO2 T02500162
KASN 242215Z AUTO 17010KT 10SM SCT046 25/16 A3001 RMK AO2 T02520162
KASN 242155Z AUTO 18009G16KT 10SM SCT046 SCT065 26/16 A3001 RMK AO2 T02580163
KASN 242135Z AUTO 16008KT 10SM SCT048 SCT065 SCT100 25/16 A3002 RMK AO2 LTG DSNT N T02460161
KASN 242115Z AUTO 18011KT 10SM SCT047 SCT055 SCT100 25/16 A3003 RMK AO2 T02460160
KASN 242055Z AUTO 16009G15KT 10SM BKN047 BKN060 BKN070 24/16 A3003 RMK AO2 LTG DSNT N T02430159
KASN 242035Z AUTO 16013G17KT 10SM SCT040 SCT046 BKN080 25/16 A3004 RMK AO2 T02480158
KASN 242015Z AUTO 19009KT 10SM SCT041 BKN049 BKN080 25/16 A3005 RMK AO2 T02460161
KASN 241955Z AUTO 17011G19KT 10SM BKN041 BKN049 OVC080 25/16 A3006 RMK AO2 LTG DSNT N T02450160
KASN 241935Z AUTO 18009G16KT 10SM BKN043 BKN049 OVC080 24/16 A3007 RMK AO2 T02410160
KASN 241915Z AUTO 20009G17KT 10SM SCT090 25/16 A3008 RMK AO2 T02490158
KASN 241855Z AUTO 18012G19KT 10SM SCT035 BKN090 25/16 A3009 RMK AO2 T02510164
KASN 241835Z AUTO 20013G17KT 10SM SCT035 BKN080 25/16 A3011 RMK AO2 T02450163
KASN 241815Z AUTO 21009KT 10SM SCT035 BKN080 24/16 A3012 RMK AO2 LTG DSNT N T02430163
KASN 241755Z AUTO 20010G16KT 10SM SCT035 BKN090 24/16 A3014 RMK AO2 T02440161 10249 20182
KASN 241735Z AUTO 21008KT 10SM SCT035 SCT090 SCT110 24/16 A3014 RMK AO2 T02430160
KASN 241715Z AUTO 19011G17KT 10SM CLR 24/16 A3015 RMK AO2 T02440160
KASN 241655Z AUTO 24008G16KT 10SM CLR 24/16 A3016 RMK AO2 T02420158
KASN 241635Z AUTO 22009G15KT 10SM SCT100 24/16 A3016 RMK AO2 T02390161
KASN 241615Z AUTO 22008KT 10SM SCT060 BKN100 23/17 A3017 RMK AO2 T02320167
KASN 241555Z AUTO 23011KT 10SM SCT060 BKN090 BKN120 23/16 A3018 RMK AO2 T02270159
KASN 241535Z AUTO 20008KT 10SM BKN090 BKN120 22/16 A3018 RMK AO2 T02200161
KASN 241515Z AUTO 23008KT 10SM BKN090 BKN120 23/17 A3018 RMK AO2 LTG DSNT W T02280166
KASN 241455Z AUTO 23005KT 10SM SCT060 SCT120 21/17 A3017 RMK AO2 T02110166
KASN 241435Z AUTO 23004KT 10SM SCT100 SCT120 21/16 A3017 RMK AO2 T02060163
KASN 241415Z AUTO 19006KT 10SM SCT100 20/16 A3017 RMK AO2 T02000160
KASN 241355Z AUTO 17005KT 10SM BKN100 BKN120 20/16 A3017 RMK AO2 T02010163